createdAt,value
2017-11-01T00:00:04.198Z,0
2017-11-01T00:01:17.034Z,0
2017-11-01T00:02:30.371Z,0
2017-11-01T00:03:42.636Z,0
2017-11-01T00:04:55.959Z,0
2017-11-01T00:06:08.953Z,0
2017-11-01T00:07:21.904Z,0
2017-11-01T00:08:34.137Z,0
2017-11-01T00:09:46.911Z,0
2017-11-01T00:11:00.224Z,0
2017-11-01T00:12:12.980Z,0
2017-11-01T00:13:26.255Z,0
2017-11-01T00:14:38.510Z,0
2017-11-01T00:15:50.747Z,0
2017-11-01T00:17:04.072Z,0
2017-11-01T00:18:16.935Z,0
2017-11-01T00:19:30.239Z,0
2017-11-01T00:20:43.021Z,0
2017-11-01T00:21:56.389Z,0
2017-11-01T00:23:09.696Z,0
2017-11-01T00:24:22.497Z,0
2017-11-01T00:25:35.800Z,0
2017-11-01T00:26:49.070Z,0
2017-11-01T00:28:01.854Z,0
2017-11-01T00:29:14.655Z,0
2017-11-01T00:30:27.986Z,0
2017-11-01T00:31:40.214Z,0
2017-11-01T00:32:52.998Z,0
2017-11-01T00:34:05.273Z,0
2017-11-01T00:35:18.051Z,0
2017-11-01T00:36:30.846Z,0
2017-11-01T00:37:44.203Z,0
2017-11-01T00:38:57.521Z,0
2017-11-01T00:40:10.645Z,0
2017-11-01T00:41:23.960Z,0
2017-11-01T00:42:37.266Z,0
2017-11-01T00:43:50.072Z,0
2017-11-01T00:45:02.347Z,0
2017-11-01T00:46:15.139Z,0
2017-11-01T00:47:28.866Z,0
2017-11-01T00:48:41.679Z,0
2017-11-01T00:49:53.962Z,0
2017-11-01T00:51:06.761Z,0
2017-11-01T00:52:19.496Z,0
2017-11-01T00:53:31.730Z,0
2017-11-01T00:54:45.068Z,0
2017-11-01T00:55:58.397Z,0
2017-11-01T00:57:11.156Z,0
2017-11-01T00:58:24.486Z,0
2017-11-01T00:59:36.741Z,0
2017-11-01T01:00:49.548Z,0
2017-11-01T01:02:02.877Z,0
2017-11-01T01:03:15.952Z,0
2017-11-01T01:04:28.466Z,0
2017-11-01T01:05:41.723Z,0
2017-11-01T01:06:53.911Z,0
2017-11-01T01:08:05.616Z,0
2017-11-01T01:09:18.373Z,0
2017-11-01T01:10:31.392Z,0
2017-11-01T01:11:43.620Z,0
2017-11-01T01:12:55.359Z,0
2017-11-01T01:14:08.140Z,0
2017-11-01T01:15:20.384Z,0
2017-11-01T01:16:32.637Z,0
2017-11-01T01:17:45.435Z,0
2017-11-01T01:18:58.730Z,0
2017-11-01T01:20:11.452Z,0
2017-11-01T01:21:23.169Z,0
2017-11-01T01:23:07.621Z,0
2017-11-01T01:24:20.408Z,0
2017-11-01T01:25:32.658Z,0
2017-11-01T01:26:46.011Z,0
2017-11-01T01:27:59.044Z,0
2017-11-01T01:29:11.823Z,0
2017-11-01T01:30:25.154Z,0
2017-11-01T01:31:38.433Z,0
2017-11-01T01:32:50.644Z,0
2017-11-01T01:34:03.987Z,0
2017-11-01T01:35:15.732Z,0
2017-11-01T01:36:28.513Z,0
2017-11-01T01:37:41.301Z,0
2017-11-01T01:38:54.885Z,0
2017-11-01T01:40:07.714Z,0
2017-11-01T01:41:20.520Z,0
2017-11-01T01:42:33.320Z,0
2017-11-01T01:43:46.122Z,0
2017-11-01T01:44:57.801Z,0
2017-11-01T01:46:10.583Z,0
2017-11-01T01:47:23.892Z,0
2017-11-01T01:48:37.195Z,0
2017-11-01T01:49:49.467Z,0
2017-11-01T01:51:02.270Z,0
2017-11-01T01:52:14.312Z,0
2017-11-01T01:53:26.851Z,0
2017-11-01T01:54:38.558Z,0
2017-11-01T01:55:51.331Z,0
2017-11-01T01:57:03.020Z,0
2017-11-01T01:58:16.619Z,0
2017-11-01T01:59:28.896Z,0
2017-11-01T02:00:42.187Z,0
2017-11-01T02:01:54.978Z,0
2017-11-01T02:03:08.288Z,0
2017-11-01T02:04:21.105Z,0
2017-11-01T02:05:34.462Z,0
2017-11-01T02:06:46.714Z,0
2017-11-01T02:07:59.519Z,0
2017-11-01T02:09:12.848Z,0
2017-11-01T02:10:25.651Z,0
2017-11-01T02:11:38.394Z,0
2017-11-01T02:12:51.718Z,0
2017-11-01T02:14:04.475Z,0
2017-11-01T02:15:17.288Z,0
2017-11-01T02:16:30.613Z,0
2017-11-01T02:17:43.067Z,0
2017-11-01T02:18:56.373Z,0
2017-11-01T02:20:08.630Z,0
2017-11-01T02:21:21.434Z,0
2017-11-01T02:22:34.332Z,0
2017-11-01T02:23:47.626Z,0
2017-11-01T02:25:00.416Z,0
2017-11-01T02:26:13.159Z,0
2017-11-01T02:27:26.476Z,0
2017-11-01T02:28:38.703Z,0
2017-11-01T02:29:50.959Z,0
2017-11-01T02:31:04.257Z,0
2017-11-01T02:32:15.983Z,0
2017-11-01T02:33:28.240Z,0
2017-11-01T02:34:41.054Z,0
2017-11-01T02:35:54.374Z,0
2017-11-01T02:37:07.723Z,0
2017-11-01T02:38:21.056Z,0
2017-11-01T02:39:34.327Z,0
2017-11-01T02:40:47.637Z,0
2017-11-01T02:41:59.858Z,0
2017-11-01T02:43:13.197Z,0
2017-11-01T02:44:25.967Z,0
2017-11-01T02:45:37.669Z,0
2017-11-01T02:46:49.871Z,0
2017-11-01T02:48:03.142Z,0
2017-11-01T02:49:15.856Z,0
2017-11-01T02:50:29.171Z,0
2017-11-01T02:51:41.921Z,0
2017-11-01T02:52:55.260Z,0
2017-11-01T02:54:08.823Z,0
2017-11-01T02:55:21.795Z,0
2017-11-01T02:56:34.613Z,0
2017-11-01T02:57:46.843Z,0
2017-11-01T02:58:59.095Z,0
2017-11-01T03:00:11.846Z,0
2017-11-01T03:01:25.164Z,0
2017-11-01T03:02:37.930Z,0
2017-11-01T03:03:51.488Z,0
2017-11-01T03:05:04.900Z,0
2017-11-01T03:06:18.197Z,0
2017-11-01T03:07:30.966Z,0
2017-11-01T03:08:44.290Z,0
2017-11-01T03:09:58.096Z,0
2017-11-01T03:11:11.394Z,0
2017-11-01T03:12:23.662Z,0
2017-11-01T03:13:36.672Z,0
2017-11-01T03:14:50.320Z,0
2017-11-01T03:16:03.317Z,0
2017-11-01T03:17:16.299Z,0
2017-11-01T03:18:29.063Z,0
2017-11-01T03:19:42.421Z,0
2017-11-01T03:20:56.151Z,0
2017-11-01T03:22:09.111Z,0
2017-11-01T03:23:22.407Z,0
2017-11-01T03:24:33.596Z,0
2017-11-01T03:25:46.339Z,0
2017-11-01T03:27:00.021Z,0
2017-11-01T03:28:12.777Z,0
2017-11-01T03:29:26.118Z,0
2017-11-01T03:30:38.997Z,0
2017-11-01T03:31:52.340Z,0
2017-11-01T03:33:04.813Z,0
2017-11-01T03:34:18.117Z,0
2017-11-01T03:35:30.850Z,0
2017-11-01T03:36:44.169Z,0
2017-11-01T03:37:57.502Z,0
2017-11-01T03:39:10.801Z,0
2017-11-01T03:40:23.562Z,0
2017-11-01T03:41:36.898Z,0
2017-11-01T03:42:49.157Z,0
2017-11-01T03:44:01.964Z,0
2017-11-01T03:45:15.297Z,0
2017-11-01T03:46:27.533Z,0
2017-11-01T03:47:40.872Z,0
2017-11-01T03:48:54.150Z,0
2017-11-01T03:50:07.518Z,0
2017-11-01T03:51:20.411Z,0
2017-11-01T03:52:32.668Z,0
2017-11-01T03:53:45.961Z,0
2017-11-01T03:54:58.759Z,0
2017-11-01T03:56:11.502Z,0
2017-11-01T03:57:24.470Z,0
2017-11-01T03:58:37.840Z,0
2017-11-01T03:59:51.097Z,0
2017-11-01T04:01:03.375Z,0
2017-11-01T04:02:16.674Z,0
2017-11-01T04:03:29.437Z,0
2017-11-01T04:04:42.207Z,0
2017-11-01T04:05:55.471Z,0
2017-11-01T04:07:08.231Z,0
2017-11-01T04:08:21.532Z,0
2017-11-01T04:09:34.891Z,0
2017-11-01T04:10:47.719Z,0
2017-11-01T04:12:00.511Z,0
2017-11-01T04:13:13.308Z,0
2017-11-01T04:14:26.615Z,0
2017-11-01T04:15:38.885Z,0
2017-11-01T04:16:52.257Z,0
2017-11-01T04:18:05.048Z,0
2017-11-01T04:19:18.315Z,0
2017-11-01T04:20:30.554Z,0
2017-11-01T04:21:43.314Z,0
2017-11-01T04:22:56.580Z,0
2017-11-01T04:24:09.381Z,0
2017-11-01T04:25:22.167Z,0
2017-11-01T04:26:34.934Z,0
2017-11-01T04:27:48.281Z,0
2017-11-01T04:29:01.080Z,0
2017-11-01T04:30:14.409Z,0
2017-11-01T04:31:27.731Z,0
2017-11-01T04:32:40.515Z,0
2017-11-01T04:33:54.029Z,0
2017-11-01T04:35:07.367Z,0
2017-11-01T04:36:20.661Z,0
2017-11-01T04:37:33.472Z,0
2017-11-01T04:38:46.280Z,0
2017-11-01T04:39:59.611Z,0
2017-11-01T04:41:12.880Z,0
2017-11-01T04:42:24.595Z,0
2017-11-01T04:43:37.380Z,0
2017-11-01T04:44:50.178Z,0
2017-11-01T04:46:02.992Z,0
2017-11-01T04:47:16.354Z,0
2017-11-01T04:48:29.689Z,0
2017-11-01T04:49:42.993Z,0
2017-11-01T04:50:54.714Z,0
2017-11-01T04:52:08.019Z,0
2017-11-01T04:53:21.075Z,0
2017-11-01T04:54:33.880Z,0
2017-11-01T04:55:46.107Z,0
2017-11-01T04:56:59.434Z,0
2017-11-01T04:58:11.554Z,0
2017-11-01T04:59:24.376Z,0
2017-11-01T05:00:37.207Z,0
2017-11-01T05:01:50.542Z,0
2017-11-01T05:03:03.317Z,0
2017-11-01T05:04:16.649Z,0
2017-11-01T05:05:29.556Z,0
2017-11-01T05:06:42.898Z,0
2017-11-01T05:07:55.664Z,0
2017-11-01T05:09:08.484Z,0
2017-11-01T05:10:21.447Z,0
2017-11-01T05:11:34.736Z,0
2017-11-01T05:12:47.510Z,0
2017-11-01T05:14:01.033Z,0
2017-11-01T05:15:14.394Z,0
2017-11-01T05:16:27.716Z,0
2017-11-01T05:17:40.512Z,0
2017-11-01T05:18:53.844Z,0
2017-11-01T05:20:06.645Z,0
2017-11-01T05:21:19.419Z,0
2017-11-01T05:22:32.735Z,0
2017-11-01T05:23:46.007Z,0
2017-11-01T05:24:58.267Z,0
2017-11-01T05:26:11.039Z,0
2017-11-01T05:27:23.380Z,0
2017-11-01T05:28:36.706Z,0
2017-11-01T05:29:49.440Z,0
2017-11-01T05:31:01.686Z,0
2017-11-01T05:32:15.018Z,0
2017-11-01T05:33:28.326Z,0
2017-11-01T05:34:40.561Z,0
2017-11-01T05:35:53.299Z,0
2017-11-01T05:37:06.620Z,0
2017-11-01T05:38:18.898Z,0
2017-11-01T05:39:32.275Z,0
2017-11-01T05:40:45.615Z,0
2017-11-01T05:41:58.944Z,0
2017-11-01T05:43:11.716Z,0
2017-11-01T05:44:24.506Z,0
2017-11-01T05:45:37.235Z,0
2017-11-01T05:46:49.487Z,0
2017-11-01T05:48:02.272Z,0
2017-11-01T05:49:15.580Z,0
2017-11-01T05:50:28.406Z,0
2017-11-01T05:51:41.742Z,0
2017-11-01T05:52:54.556Z,0
2017-11-01T05:54:07.346Z,0
2017-11-01T05:55:20.621Z,0
2017-11-01T05:56:32.875Z,0
2017-11-01T05:57:46.038Z,0
2017-11-01T05:58:59.317Z,0
2017-11-01T06:00:12.658Z,0
2017-11-01T06:01:25.950Z,0
2017-11-01T06:02:39.255Z,0
2017-11-01T06:03:51.533Z,0
2017-11-01T06:05:04.251Z,0
2017-11-01T06:06:17.086Z,0
2017-11-01T06:07:30.329Z,0
2017-11-01T06:08:43.608Z,0
2017-11-01T06:09:56.411Z,0
2017-11-01T06:11:09.151Z,0
2017-11-01T06:12:22.467Z,0
2017-11-01T06:13:35.781Z,0
2017-11-01T06:14:49.143Z,0
2017-11-01T06:16:01.511Z,0
2017-11-01T06:17:14.833Z,0
2017-11-01T06:18:27.094Z,0
2017-11-01T06:19:40.369Z,0
2017-11-01T06:20:52.101Z,0
2017-11-01T06:22:05.382Z,0
2017-11-01T06:23:18.733Z,0
2017-11-01T06:24:32.051Z,0
2017-11-01T06:25:45.405Z,0
2017-11-01T06:26:58.733Z,0
2017-11-01T06:28:10.989Z,0
2017-11-01T06:29:22.692Z,0
2017-11-01T06:30:34.976Z,0
2017-11-01T06:31:47.739Z,0
2017-11-01T06:33:00.490Z,0
2017-11-01T06:34:13.818Z,0
2017-11-01T06:35:27.123Z,0
2017-11-01T06:36:40.421Z,0
2017-11-01T06:37:53.236Z,0
2017-11-01T06:39:06.537Z,0
2017-11-01T06:40:19.292Z,0
2017-11-01T06:41:30.973Z,0
2017-11-01T06:42:44.267Z,0
2017-11-01T06:43:57.563Z,0
2017-11-01T06:45:09.811Z,0
2017-11-01T06:46:23.104Z,0
2017-11-01T06:47:36.379Z,0
2017-11-01T06:48:49.430Z,0
2017-11-01T06:50:02.189Z,0
2017-11-01T06:51:14.401Z,0
2017-11-01T06:52:26.721Z,0
2017-11-01T06:53:39.472Z,0
2017-11-01T06:54:52.789Z,0
2017-11-01T06:56:04.989Z,0
2017-11-01T06:57:17.276Z,0
2017-11-01T06:58:30.009Z,0
2017-11-01T06:59:42.279Z,0
2017-11-01T07:00:55.597Z,0
2017-11-01T07:02:08.371Z,0
2017-11-01T07:03:21.413Z,0
2017-11-01T07:04:34.168Z,0
2017-11-01T07:05:46.944Z,0
2017-11-01T07:06:59.238Z,0
2017-11-01T07:08:12.349Z,0
2017-11-01T07:09:25.158Z,0
2017-11-01T07:10:38.433Z,0
2017-11-01T07:11:51.247Z,0
2017-11-01T07:13:04.588Z,0
2017-11-01T07:14:17.897Z,0
2017-11-01T07:15:30.351Z,0
2017-11-01T07:16:42.856Z,0
2017-11-01T07:17:55.606Z,0
2017-11-01T07:19:07.319Z,0
2017-11-01T07:20:20.102Z,0
2017-11-01T07:21:32.829Z,0
2017-11-01T07:22:46.186Z,0
2017-11-01T07:23:59.582Z,0
2017-11-01T07:25:12.924Z,0
2017-11-01T07:26:25.687Z,0
2017-11-01T07:27:37.874Z,0
2017-11-01T07:28:50.130Z,0
2017-11-01T07:30:03.399Z,0
2017-11-01T07:31:16.169Z,0
2017-11-01T07:32:29.453Z,0
2017-11-01T07:33:42.430Z,0
2017-11-01T07:34:55.345Z,0
2017-11-01T07:36:08.646Z,0
2017-11-01T07:37:20.933Z,0
2017-11-01T07:38:34.255Z,0
2017-11-01T07:39:47.261Z,0
2017-11-01T07:40:59.476Z,0
2017-11-01T07:42:12.761Z,0
2017-11-01T07:43:25.533Z,0
2017-11-01T07:44:38.274Z,0
2017-11-01T07:45:51.037Z,0
2017-11-01T07:47:04.375Z,0
2017-11-01T07:48:16.095Z,0
2017-11-01T07:49:28.329Z,0
2017-11-01T07:50:41.090Z,0
2017-11-01T07:51:53.886Z,0
2017-11-01T07:53:06.135Z,0
2017-11-01T07:54:19.617Z,0
2017-11-01T07:55:33.043Z,0
2017-11-01T07:56:46.307Z,0
2017-11-01T07:57:59.094Z,0
2017-11-01T07:59:12.393Z,0
2017-11-01T08:00:25.149Z,0
2017-11-01T08:01:38.447Z,0
2017-11-01T08:02:50.724Z,0
2017-11-01T08:04:04.089Z,0
2017-11-01T08:05:17.409Z,0
2017-11-01T08:06:30.181Z,0
2017-11-01T08:07:43.454Z,0
2017-11-01T08:08:56.479Z,0
2017-11-01T08:10:09.239Z,0
2017-11-01T08:11:21.431Z,5
2017-11-01T08:12:34.957Z,5
2017-11-01T08:13:47.720Z,5
2017-11-01T08:15:01.091Z,10
2017-11-01T08:16:13.919Z,10
2017-11-01T08:17:27.462Z,15
2017-11-01T08:18:40.234Z,15
2017-11-01T08:19:53.573Z,20
2017-11-01T08:21:06.390Z,25
2017-11-01T08:22:19.551Z,30
2017-11-01T08:23:33.091Z,35
2017-11-01T08:24:46.420Z,45
2017-11-01T08:25:59.253Z,50
2017-11-01T08:27:12.576Z,55
2017-11-01T08:28:25.372Z,60
2017-11-01T08:29:38.343Z,65
2017-11-01T08:30:51.103Z,80
2017-11-01T08:32:04.056Z,90
2017-11-01T08:33:17.555Z,100
2017-11-01T08:34:30.376Z,120
2017-11-01T08:35:43.688Z,135
2017-11-01T08:36:57.021Z,125
2017-11-01T08:38:09.811Z,130
2017-11-01T08:39:21.525Z,135
2017-11-01T08:40:34.810Z,175
2017-11-01T08:41:48.131Z,190
2017-11-01T08:42:59.821Z,160
2017-11-01T08:44:13.131Z,175
2017-11-01T08:45:25.404Z,190
2017-11-01T08:46:38.241Z,190
2017-11-01T08:47:51.024Z,240
2017-11-01T08:49:03.819Z,245
2017-11-01T08:50:16.052Z,240
2017-11-01T08:51:29.382Z,230
2017-11-01T08:52:42.160Z,235
2017-11-01T08:53:55.497Z,245
2017-11-01T08:55:08.790Z,295
2017-11-01T08:56:21.580Z,300
2017-11-01T08:57:34.378Z,295
2017-11-01T08:58:47.875Z,395
2017-11-01T09:00:00.120Z,455
2017-11-01T09:01:12.376Z,445
2017-11-01T09:02:24.595Z,455
2017-11-01T09:03:36.846Z,365
2017-11-01T09:04:50.159Z,365
2017-11-01T09:06:02.941Z,575
2017-11-01T09:07:15.178Z,685
2017-11-01T09:08:27.930Z,535
2017-11-01T09:09:40.697Z,525
2017-11-01T09:10:54.009Z,565
2017-11-01T09:12:06.265Z,505
2017-11-01T09:13:19.582Z,370
2017-11-01T09:14:32.557Z,415
2017-11-01T09:15:45.314Z,450
2017-11-01T09:16:58.627Z,545
2017-11-01T09:18:11.919Z,545
2017-11-01T09:19:24.689Z,700
2017-11-01T09:20:36.375Z,585
2017-11-01T09:21:49.140Z,810
2017-11-01T09:23:02.435Z,775
2017-11-01T09:24:15.691Z,550
2017-11-01T09:25:28.442Z,710
2017-11-01T09:26:41.215Z,685
2017-11-01T09:27:54.016Z,785
2017-11-01T09:29:07.350Z,670
2017-11-01T09:30:20.337Z,555
2017-11-01T09:31:33.433Z,855
2017-11-01T09:32:46.241Z,810
2017-11-01T09:33:59.570Z,1100
2017-11-01T09:35:12.333Z,1180
2017-11-01T09:36:25.241Z,935
2017-11-01T09:37:38.016Z,1120
2017-11-01T09:38:49.733Z,1150
2017-11-01T09:40:02.522Z,975
2017-11-01T09:41:15.358Z,730
2017-11-01T09:42:28.734Z,860
2017-11-01T09:43:42.078Z,975
2017-11-01T09:44:54.306Z,620
2017-11-01T09:46:07.639Z,1140
2017-11-01T09:47:20.948Z,1310
2017-11-01T09:48:34.075Z,810
2017-11-01T09:49:46.865Z,635
2017-11-01T09:50:59.670Z,615
2017-11-01T09:52:11.910Z,600
2017-11-01T09:53:25.015Z,625
2017-11-01T09:54:37.992Z,695
2017-11-01T09:55:50.760Z,770
2017-11-01T09:57:04.102Z,860
2017-11-01T09:58:16.683Z,900
2017-11-01T09:59:29.001Z,820
2017-11-01T10:00:42.379Z,970
2017-11-01T10:01:55.713Z,1130
2017-11-01T10:03:08.592Z,1275
2017-11-01T10:04:21.965Z,1340
2017-11-01T10:05:35.308Z,1465
2017-11-01T10:06:48.679Z,1565
2017-11-01T10:08:01.139Z,1045
2017-11-01T10:09:14.678Z,1285
2017-11-01T10:10:26.969Z,950
2017-11-01T10:11:40.307Z,800
2017-11-01T10:12:53.040Z,1830
2017-11-01T10:14:05.824Z,1885
2017-11-01T10:15:19.124Z,1200
2017-11-01T10:16:32.421Z,1525
2017-11-01T10:17:45.244Z,1285
2017-11-01T10:18:58.600Z,1950
2017-11-01T10:20:11.380Z,2055
2017-11-01T10:21:24.159Z,2015
2017-11-01T10:22:36.971Z,1830
2017-11-01T10:23:49.789Z,1360
2017-11-01T10:25:02.556Z,1520
2017-11-01T10:26:14.880Z,1255
2017-11-01T10:27:28.201Z,975
2017-11-01T10:28:40.448Z,1090
2017-11-01T10:29:53.805Z,2380
2017-11-01T10:31:06.595Z,970
2017-11-01T10:32:18.807Z,1910
2017-11-01T10:33:31.245Z,1670
2017-11-01T10:34:44.060Z,1165
2017-11-01T10:35:57.417Z,1970
2017-11-01T10:37:10.989Z,1625
2017-11-01T10:38:23.860Z,1490
2017-11-01T10:39:37.192Z,805
2017-11-01T10:40:50.022Z,775
2017-11-01T10:42:03.187Z,935
2017-11-01T10:43:16.356Z,1725
2017-11-01T10:44:29.106Z,1590
2017-11-01T10:45:42.475Z,1910
2017-11-01T10:46:55.273Z,1885
2017-11-01T10:48:08.097Z,1875
2017-11-01T10:49:19.872Z,1860
2017-11-01T10:50:33.481Z,1985
2017-11-01T10:51:45.764Z,2040
2017-11-01T10:52:57.965Z,2025
2017-11-01T10:54:11.322Z,1920
2017-11-01T10:55:24.133Z,1230
2017-11-01T10:56:36.393Z,1920
2017-11-01T10:57:49.199Z,1205
2017-11-01T10:59:01.583Z,1055
2017-11-01T11:00:14.159Z,1030
2017-11-01T11:01:26.995Z,1590
2017-11-01T11:02:40.299Z,1225
2017-11-01T11:03:53.082Z,1020
2017-11-01T11:05:06.396Z,1040
2017-11-01T11:06:19.709Z,910
2017-11-01T11:07:31.431Z,1160
2017-11-01T11:08:44.783Z,1220
2017-11-01T11:09:57.070Z,1065
2017-11-01T11:11:09.968Z,1035
2017-11-01T11:12:22.431Z,1520
2017-11-01T11:13:35.530Z,1205
2017-11-01T11:14:48.358Z,1835
2017-11-01T11:16:01.879Z,895
2017-11-01T11:17:15.308Z,665
2017-11-01T11:18:27.574Z,650
2017-11-01T11:19:39.826Z,765
2017-11-01T11:20:52.650Z,750
2017-11-01T11:22:05.393Z,760
2017-11-01T11:23:17.673Z,760
2017-11-01T11:24:31.009Z,670
2017-11-01T11:25:44.312Z,650
2017-11-01T11:26:56.316Z,690
2017-11-01T11:28:07.664Z,710
2017-11-01T11:29:19.397Z,755
2017-11-01T11:30:32.778Z,760
2017-11-01T11:31:43.960Z,775
2017-11-01T11:32:57.520Z,835
2017-11-01T11:34:09.785Z,895
2017-11-01T11:35:22.062Z,870
2017-11-01T11:36:34.334Z,675
2017-11-01T11:37:47.133Z,565
2017-11-01T11:39:00.640Z,635
2017-11-01T11:40:12.367Z,755
2017-11-01T11:41:25.175Z,855
2017-11-01T11:42:37.933Z,850
2017-11-01T11:43:51.594Z,850
2017-11-01T11:45:04.382Z,860
2017-11-01T11:46:17.706Z,1050
2017-11-01T11:47:30.503Z,1120
2017-11-01T11:48:43.289Z,1055
2017-11-01T11:49:56.077Z,1005
2017-11-01T11:51:08.327Z,910
2017-11-01T11:52:21.885Z,875
2017-11-01T11:53:35.254Z,915
2017-11-01T11:54:48.602Z,1285
2017-11-01T11:56:01.425Z,1340
2017-11-01T11:57:14.180Z,1270
2017-11-01T11:58:27.262Z,2645
2017-11-01T11:59:40.680Z,1565
2017-11-01T12:00:52.926Z,1615
2017-11-01T12:02:05.878Z,1635
2017-11-01T12:03:18.115Z,1470
2017-11-01T12:04:30.916Z,1320
2017-11-01T12:05:44.296Z,1340
2017-11-01T12:06:57.623Z,1645
2017-11-01T12:08:10.867Z,2175
2017-11-01T12:09:25.040Z,2185
2017-11-01T12:10:38.278Z,1605
2017-11-01T12:11:52.203Z,1440
2017-11-01T12:13:05.985Z,1605
2017-11-01T12:14:19.431Z,1505
2017-11-01T12:15:33.296Z,1470
2017-11-01T12:16:47.110Z,1760
2017-11-01T12:18:00.038Z,1240
2017-11-01T12:19:14.103Z,1130
2017-11-01T12:20:27.838Z,1660
2017-11-01T12:21:40.353Z,2195
2017-11-01T12:22:53.535Z,1810
2017-11-01T12:24:07.259Z,2025
2017-11-01T12:25:20.662Z,2620
2017-11-01T12:26:34.008Z,1700
2017-11-01T12:27:46.983Z,1270
2017-11-01T12:28:59.812Z,1145
2017-11-01T12:30:13.029Z,955
2017-11-01T12:31:26.671Z,760
2017-11-01T12:32:40.780Z,725
2017-11-01T12:33:54.303Z,870
2017-11-01T12:35:07.415Z,895
2017-11-01T12:36:20.314Z,820
2017-11-01T12:37:33.692Z,750
2017-11-01T12:38:45.618Z,705
2017-11-01T12:39:57.639Z,635
2017-11-01T12:41:10.880Z,630
2017-11-01T12:42:23.797Z,625
2017-11-01T12:43:36.899Z,665
2017-11-01T12:44:50.875Z,655
2017-11-01T12:46:02.982Z,720
2017-11-01T12:47:16.474Z,915
2017-11-01T12:48:29.735Z,1870
2017-11-01T12:49:43.093Z,1645
2017-11-01T12:50:56.675Z,1815
2017-11-01T12:52:10.490Z,4245
2017-11-01T12:53:22.921Z,3125
2017-11-01T12:54:35.329Z,2365
2017-11-01T12:55:48.909Z,1705
2017-11-01T12:57:01.659Z,4275
2017-11-01T12:58:15.490Z,4045
2017-11-01T12:59:29.721Z,3355
2017-11-01T13:00:41.938Z,1690
2017-11-01T13:01:55.841Z,2025
2017-11-01T13:03:10.934Z,1220
2017-11-01T13:04:23.662Z,1390
2017-11-01T13:05:37.526Z,1375
2017-11-01T13:06:52.171Z,1185
2017-11-01T13:08:05.038Z,3915
2017-11-01T13:09:19.022Z,1325
2017-11-01T13:10:31.367Z,1065
2017-11-01T13:11:44.778Z,945
2017-11-01T13:12:57.603Z,1310
2017-11-01T13:14:11.062Z,1190
2017-11-01T13:15:24.440Z,1065
2017-11-01T13:16:36.875Z,910
2017-11-01T13:17:50.630Z,870
2017-11-01T13:19:03.585Z,780
2017-11-01T13:20:17.144Z,735
2017-11-01T13:21:29.385Z,790
2017-11-01T13:22:41.118Z,875
2017-11-01T13:23:52.834Z,1000
2017-11-01T13:25:05.137Z,1120
2017-11-01T13:26:17.925Z,1225
2017-11-01T13:27:31.904Z,1130
2017-11-01T13:28:45.236Z,935
2017-11-01T13:29:58.027Z,915
2017-11-01T13:31:10.845Z,975
2017-11-01T13:32:23.617Z,915
2017-11-01T13:33:35.879Z,890
2017-11-01T13:34:49.178Z,930
2017-11-01T13:36:02.515Z,935
2017-11-01T13:37:15.839Z,1005
2017-11-01T13:38:29.140Z,1290
2017-11-01T13:39:40.332Z,2145
2017-11-01T13:40:53.154Z,1965
2017-11-01T13:42:04.496Z,2580
2017-11-01T13:43:17.243Z,3020
2017-11-01T13:44:30.547Z,3360
2017-11-01T13:45:43.312Z,4265
2017-11-01T13:46:56.599Z,4170
2017-11-01T13:48:09.916Z,4575
2017-11-01T13:49:23.364Z,4265
2017-11-01T13:50:35.125Z,4170
2017-11-01T13:51:47.922Z,3470
2017-11-01T13:53:00.168Z,3490
2017-11-01T13:54:12.957Z,3080
2017-11-01T13:55:26.498Z,1655
2017-11-01T13:56:38.761Z,1935
2017-11-01T13:57:51.623Z,1765
2017-11-01T13:59:04.999Z,1340
2017-11-01T14:00:18.330Z,1365
2017-11-01T14:01:31.103Z,1460
2017-11-01T14:02:44.440Z,1640
2017-11-01T14:03:57.257Z,1415
2017-11-01T14:05:10.578Z,1370
2017-11-01T14:06:23.367Z,1415
2017-11-01T14:07:36.167Z,1380
2017-11-01T14:08:48.929Z,1430
2017-11-01T14:10:00.664Z,1495
2017-11-01T14:11:13.484Z,1375
2017-11-01T14:12:26.311Z,1280
2017-11-01T14:13:39.088Z,1280
2017-11-01T14:14:51.354Z,1010
2017-11-01T14:16:04.155Z,1005
2017-11-01T14:17:17.496Z,1065
2017-11-01T14:18:30.773Z,1150
2017-11-01T14:19:44.486Z,1140
2017-11-01T14:20:57.792Z,1275
2017-11-01T14:22:10.266Z,1560
2017-11-01T14:23:23.181Z,1405
2017-11-01T14:24:35.544Z,1525
2017-11-01T14:25:47.795Z,2165
2017-11-01T14:27:00.148Z,3460
2017-11-01T14:28:13.027Z,2960
2017-11-01T14:29:25.714Z,1910
2017-11-01T14:30:39.011Z,1490
2017-11-01T14:31:52.394Z,1445
2017-11-01T14:33:05.182Z,1565
2017-11-01T14:34:18.492Z,2355
2017-11-01T14:35:31.237Z,1900
2017-11-01T14:36:44.576Z,2045
2017-11-01T14:37:57.367Z,2505
2017-11-01T14:39:09.094Z,1500
2017-11-01T14:40:22.403Z,1295
2017-11-01T14:41:34.678Z,1400
2017-11-01T14:42:47.572Z,3070
2017-11-01T14:44:00.337Z,2680
2017-11-01T14:45:13.282Z,4030
2017-11-01T14:46:26.604Z,2175
2017-11-01T14:47:39.412Z,1600
2017-11-01T14:48:52.739Z,1540
2017-11-01T14:50:05.501Z,1380
2017-11-01T14:51:18.325Z,1320
2017-11-01T14:52:31.830Z,1425
2017-11-01T14:53:44.051Z,1585
2017-11-01T14:54:56.967Z,2220
2017-11-01T14:56:09.785Z,1960
2017-11-01T14:57:22.543Z,2100
2017-11-01T14:58:34.826Z,2005
2017-11-01T14:59:48.166Z,2125
2017-11-01T15:01:01.463Z,2190
2017-11-01T15:02:13.735Z,4005
2017-11-01T15:03:26.522Z,2070
2017-11-01T15:04:40.065Z,2785
2017-11-01T15:05:53.429Z,2270
2017-11-01T15:07:06.212Z,2145
2017-11-01T15:08:19.047Z,2150
2017-11-01T15:09:30.765Z,1795
2017-11-01T15:10:43.060Z,2145
2017-11-01T15:11:56.375Z,2895
2017-11-01T15:13:09.704Z,2015
2017-11-01T15:14:21.918Z,2665
2017-11-01T15:15:35.243Z,1820
2017-11-01T15:16:48.691Z,2775
2017-11-01T15:18:01.504Z,2000
2017-11-01T15:19:14.920Z,1920
2017-11-01T15:20:29.332Z,2235
2017-11-01T15:21:41.154Z,2245
2017-11-01T15:22:53.503Z,2525
2017-11-01T15:24:05.791Z,2290
2017-11-01T15:25:18.571Z,2475
2017-11-01T15:26:31.436Z,2180
2017-11-01T15:27:44.302Z,2190
2017-11-01T15:28:56.273Z,1850
2017-11-01T15:30:08.553Z,1850
2017-11-01T15:31:21.370Z,1810
2017-11-01T15:32:34.667Z,1905
2017-11-01T15:33:47.455Z,2020
2017-11-01T15:35:00.805Z,3810
2017-11-01T15:36:13.082Z,3155
2017-11-01T15:37:26.013Z,1810
2017-11-01T15:38:38.281Z,1825
2017-11-01T15:39:50.640Z,1890
2017-11-01T15:41:02.982Z,1775
2017-11-01T15:42:16.350Z,2195
2017-11-01T15:43:29.651Z,1800
2017-11-01T15:44:42.460Z,4465
2017-11-01T15:45:54.742Z,4485
2017-11-01T15:47:07.665Z,2935
2017-11-01T15:48:21.111Z,1975
2017-11-01T15:49:33.938Z,2810
2017-11-01T15:50:47.365Z,2560
2017-11-01T15:52:01.109Z,3995
2017-11-01T15:53:18.691Z,4095
2017-11-01T15:54:31.683Z,3330
2017-11-01T15:55:45.062Z,1655
2017-11-01T15:56:57.340Z,1680
2017-11-01T15:58:09.207Z,4960
2017-11-01T15:59:21.992Z,2705
2017-11-01T16:00:35.323Z,2600
2017-11-01T16:01:48.683Z,4230
2017-11-01T16:03:02.006Z,4520
2017-11-01T16:04:14.292Z,3775
2017-11-01T16:05:27.595Z,3830
2017-11-01T16:06:40.946Z,2200
2017-11-01T16:07:53.280Z,1830
2017-11-01T16:09:06.035Z,2000
2017-11-01T16:10:17.744Z,1865
2017-11-01T16:11:30.651Z,2285
2017-11-01T16:12:43.444Z,3875
2017-11-01T16:13:56.219Z,2815
2017-11-01T16:15:08.495Z,2350
2017-11-01T16:16:20.908Z,2720
2017-11-01T16:17:34.244Z,2095
2017-11-01T16:18:47.726Z,3590
2017-11-01T16:20:00.510Z,3905
2017-11-01T16:21:13.479Z,1310
2017-11-01T16:22:26.067Z,3420
2017-11-01T16:23:38.341Z,3505
2017-11-01T16:24:51.180Z,3705
2017-11-01T16:26:03.943Z,3100
2017-11-01T16:27:17.284Z,3225
2017-11-01T16:28:30.615Z,3415
2017-11-01T16:29:43.406Z,1400
2017-11-01T16:30:56.236Z,3730
2017-11-01T16:32:09.514Z,3595
2017-11-01T16:33:21.775Z,1625
2017-11-01T16:34:34.033Z,1420
2017-11-01T16:35:47.404Z,3795
2017-11-01T16:37:00.943Z,3995
2017-11-01T16:38:13.829Z,1670
2017-11-01T16:39:26.103Z,1540
2017-11-01T16:40:39.439Z,1295
2017-11-01T16:41:52.234Z,3525
2017-11-01T16:43:05.056Z,3375
2017-11-01T16:44:18.003Z,3090
2017-11-01T16:45:31.365Z,2450
2017-11-01T16:46:44.695Z,1435
2017-11-01T16:47:56.391Z,1455
2017-11-01T16:49:09.206Z,1765
2017-11-01T16:50:21.485Z,1190
2017-11-01T16:51:32.694Z,1215
2017-11-01T16:52:45.076Z,2535
2017-11-01T16:53:58.135Z,2920
2017-11-01T16:55:11.535Z,3440
2017-11-01T16:56:23.486Z,3220
2017-11-01T16:57:36.356Z,2965
2017-11-01T16:58:49.712Z,1820
2017-11-01T17:00:03.101Z,2500
2017-11-01T17:01:16.705Z,2675
2017-11-01T17:02:28.870Z,2450
2017-11-01T17:03:41.738Z,2610
2017-11-01T17:04:53.974Z,2240
2017-11-01T17:06:06.779Z,2730